Time;durP1;ratioP1;P1;durP2;ratioP2;P2;SDS_P1;SDS_P2;PMS_P1;PMS_P2;Temp;Humidity;BMP_temperature;BMP_pressure;BME280_temperature;BME280_humidity;BME280_pressure;Samples;Min_cycle;Max_cycle;Signal;HPM_P1;HPM_P2
2023/05/28 00:07:34;;;;;;;;;;;;;;;24.39;46.31;100528.69;39900637;29;19924;-89
2023/05/28 00:27:34;;;;;;;;;;;;;;;24.37;46.26;100525.34;39899683;29;19929;-90
2023/05/28 00:47:35;;;;;;;;;;;;;;;24.35;46.00;100510.56;39878791;29;19929;-89
2023/05/28 01:07:35;;;;;;;;;;;;;;;24.33;46.09;100496.63;39877993;29;19935;-87
2023/05/28 01:27:38;;;;;;;;;;;;;;;24.30;45.92;100479.22;39884711;29;19984;-89
2023/05/28 01:47:40;;;;;;;;;;;;;;;24.30;45.97;100482.72;39881178;29;19925;-87
2023/05/28 02:07:40;;;;;;;;;;;;;;;24.27;45.80;100472.41;39907812;29;19913;-89
2023/05/28 02:27:41;;;;;;;;;;;;;;;24.26;45.61;100464.59;39903691;29;19925;-88
2023/05/28 02:47:41;;;;;;;;;;;;;;;24.23;45.55;100476.28;39903943;29;19924;-89
2023/05/28 03:07:41;;;;;;;;;;;;;;;24.22;45.57;100463.22;40294318;24;19948;-78
2023/05/28 03:27:41;;;;;;;;;;;;;;;24.20;45.44;100462.50;39935455;29;20023;-77
2023/05/28 03:47:43;;;;;;;;;;;;;;;24.18;45.42;100460.00;39989756;29;20595;-78
2023/05/28 04:07:43;;;;;;;;;;;;;;;24.18;45.34;100460.00;40002442;29;20421;-77
2023/05/28 04:27:44;;;;;;;;;;;;;;;24.18;45.15;100461.78;39982060;29;19931;-78
2023/05/28 04:47:45;;;;;;;;;;;;;;;24.19;45.27;100474.06;39980218;29;20068;-78
2023/05/28 05:07:46;;;;;;;;;;;;;;;24.19;45.11;100479.34;39969483;29;19993;-77
2023/05/28 05:27:48;;;;;;;;;;;;;;;24.18;45.12;100475.03;40000442;29;19935;-78
2023/05/28 05:47:49;;;;;;;;;;;;;;;24.20;45.07;100462.50;40012085;29;19981;-77
2023/05/28 06:07:49;;;;;;;;;;;;;;;24.18;45.14;100467.09;40014187;29;19932;-77
2023/05/28 06:27:51;;;;;;;;;;;;;;;24.20;45.15;100475.72;40002665;29;19919;-78
2023/05/28 06:47:51;;;;;;;;;;;;;;;24.22;45.13;100497.63;39987065;29;20410;-78
2023/05/28 07:07:51;;;;;;;;;;;;;;;24.23;45.05;100481.59;40001722;29;19935;-78
2023/05/28 07:27:52;;;;;;;;;;;;;;;24.29;44.94;100488.13;39976209;29;19977;-79
2023/05/28 07:47:52;;;;;;;;;;;;;;;24.34;45.09;100466.56;39997172;29;19939;-77
2023/05/28 08:07:52;;;;;;;;;;;;;;;24.37;45.27;100466.28;39997886;29;20007;-78
2023/05/28 08:27:53;;;;;;;;;;;;;;;24.40;45.02;100452.75;39979202;29;19924;-78
2023/05/28 08:47:53;;;;;;;;;;;;;;;24.39;45.29;100441.34;39991033;29;19985;-78
2023/05/28 09:07:53;;;;;;;;;;;;;;;24.41;45.21;100433.25;40009743;29;19931;-77
2023/05/28 09:27:55;;;;;;;;;;;;;;;24.43;45.40;100412.81;40021898;29;19928;-78
2023/05/28 09:47:55;;;;;;;;;;;;;;;24.45;45.37;100402.91;39984207;29;19981;-78
2023/05/28 10:07:56;;;;;;;;;;;;;;;24.49;45.27;100395.53;39990141;29;20080;-79
2023/05/28 10:28:02;;;;;;;;;;;;;;;24.54;45.23;100372.94;39988933;29;19928;-78
2023/05/28 10:48:02;;;;;;;;;;;;;;;24.61;45.34;100370.56;39992106;29;19982;-78
2023/05/28 11:08:03;;;;;;;;;;;;;;;24.69;45.54;100346.06;40000626;29;19951;-79
2023/05/28 11:28:03;;;;;;;;;;;;;;;24.77;45.11;100325.81;40008276;29;19935;-78
2023/05/28 11:48:03;;;;;;;;;;;;;;;24.87;44.92;100290.53;40001677;29;19932;-79
2023/05/28 12:08:04;;;;;;;;;;;;;;;24.96;44.95;100284.34;39996064;29;19956;-78
2023/05/28 12:28:04;;;;;;;;;;;;;;;25.08;44.84;100287.63;39982832;29;19925;-79
2023/05/28 12:48:05;;;;;;;;;;;;;;;25.18;44.72;100272.53;39982197;29;20296;-79
2023/05/28 13:08:05;;;;;;;;;;;;;;;25.28;44.48;100253.09;39973838;29;19996;-78
2023/05/28 13:28:05;;;;;;;;;;;;;;;25.38;44.71;100254.72;39986616;29;19932;-79
2023/05/28 13:48:06;;;;;;;;;;;;;;;25.47;44.54;100225.66;39983272;29;21242;-77
2023/05/28 14:08:07;;;;;;;;;;;;;;;25.56;44.09;100217.63;40011780;29;19933;-78
2023/05/28 14:28:07;;;;;;;;;;;;;;;25.65;44.01;100199.16;40014592;29;19925;-79
2023/05/28 14:48:07;;;;;;;;;;;;;;;25.71;44.13;100190.56;40024552;29;19928;-78
2023/05/28 15:08:09;;;;;;;;;;;;;;;25.81;44.02;100193.13;39985854;29;20007;-78
2023/05/28 15:28:11;;;;;;;;;;;;;;;25.86;43.76;100166.97;40019402;29;19975;-77
2023/05/28 15:48:12;;;;;;;;;;;;;;;25.92;43.28;100158.38;40001397;29;19976;-79
2023/05/28 16:08:12;;;;;;;;;;;;;;;25.94;43.18;100171.50;39983397;29;19925;-79
2023/05/28 16:28:12;;;;;;;;;;;;;;;25.87;43.33;100169.47;39991782;29;19991;-78
2023/05/28 16:48:17;;;;;;;;;;;;;;;25.81;43.76;100178.03;39973184;29;19932;-79
2023/05/28 17:08:17;;;;;;;;;;;;;;;25.52;34.95;100173.84;39854296;29;19939;-78
2023/05/28 17:28:18;;;;;;;;;;;;;;;25.44;34.66;100170.28;39905456;29;19940;-78
2023/05/28 17:48:19;;;;;;;;;;;;;;;25.32;32.52;100174.97;39927023;29;20019;-77
2023/05/28 18:08:20;;;;;;;;;;;;;;;25.10;30.57;100185.84;39914936;29;19924;-80
2023/05/28 18:28:21;;;;;;;;;;;;;;;24.87;30.29;100190.72;39910982;29;19928;-80
2023/05/28 18:48:21;;;;;;;;;;;;;;;24.62;31.11;100198.34;39898110;29;19915;-81
2023/05/28 19:08:22;;;;;;;;;;;;;;;24.34;31.96;100209.88;39877134;29;19931;-82
2023/05/28 19:28:22;;;;;;;;;;;;;;;24.24;32.82;100231.06;39919600;29;20019;-81
2023/05/28 19:48:22;;;;;;;;;;;;;;;24.10;33.60;100256.97;39917623;29;19978;-82
2023/05/28 20:08:26;;;;;;;;;;;;;;;24.02;33.63;100267.44;39950172;29;20049;-82
2023/05/28 20:28:28;;;;;;;;;;;;;;;23.89;33.99;100275.63;39925826;29;19920;-81
2023/05/28 20:48:30;;;;;;;;;;;;;;;23.78;34.52;100273.13;39916857;29;19925;-82
2023/05/28 21:08:30;;;;;;;;;;;;;;;23.69;35.44;100274.78;39918376;29;20015;-81
2023/05/28 21:28:30;;;;;;;;;;;;;;;23.53;35.54;100285.06;39909330;29;20014;-81
2023/05/28 21:48:31;;;;;;;;;;;;;;;23.41;36.08;100279.91;39927978;29;20086;-80
2023/05/28 22:08:32;;;;;;;;;;;;;;;23.27;36.22;100278.47;39923423;29;20033;-78
2023/05/28 22:28:32;;;;;;;;;;;;;;;23.17;36.01;100277.63;39946592;29;19924;-82
2023/05/28 22:48:33;;;;;;;;;;;;;;;23.07;36.02;100274.91;39923506;29;19933;-82
2023/05/28 23:08:34;;;;;;;;;;;;;;;22.95;36.42;100292.66;39936541;29;19996;-81
2023/05/28 23:28:34;;;;;;;;;;;;;;;22.91;36.55;100274.56;39927409;29;19925;-79
2023/05/28 23:48:36;;;;;;;;;;;;;;;22.76;37.12;100287.28;39943151;29;19908;-81
